Time;durP1;ratioP1;P1;durP2;ratioP2;P2;SDS_P1;SDS_P2;PMS_P1;PMS_P2;Temp;Humidity;BMP_temperature;BMP_pressure;BME280_temperature;BME280_humidity;BME280_pressure;Samples;Min_cycle;Max_cycle;Signal;HPM_P1;HPM_P2
2023/07/24 00:03:12;;;;;;;9.38;7.93;;;18.10;99.90;;;18.59;86.09;97257.22;10371942;28;20726;-79
2023/07/24 00:08:15;;;;;;;11.02;8.48;;;17.80;99.90;;;18.57;92.16;97277.03;10372128;28;20222;-80
2023/07/24 00:13:18;;;;;;;10.25;8.48;;;17.80;99.90;;;18.46;93.95;97285.53;10362123;28;20261;-79
2023/07/24 00:18:23;;;;;;;11.25;8.50;;;17.70;99.90;;;18.42;94.97;97309.59;10367549;28;20330;-79
2023/07/24 00:23:26;;;;;;;11.23;8.70;;;17.60;99.90;;;18.30;96.59;97324.03;10365061;28;20241;-80
2023/07/24 00:28:29;;;;;;;10.52;8.38;;;17.60;99.90;;;18.42;93.08;97278.53;10364443;28;20240;-79
2023/07/24 00:33:34;;;;;;;11.40;8.57;;;17.50;99.90;;;18.21;93.88;97289.38;10372317;28;20257;-80
2023/07/24 00:38:37;;;;;;;11.40;8.65;;;17.30;99.90;;;18.12;96.31;97285.78;10362280;28;20226;-80
2023/07/24 00:43:41;;;;;;;10.45;8.90;;;17.30;99.90;;;17.84;98.21;97272.34;10371381;28;20226;-78
2023/07/24 00:48:45;;;;;;;12.52;8.85;;;17.00;99.90;;;17.51;98.58;97283.72;10380331;28;20218;-79
2023/07/24 00:53:48;;;;;;;12.50;9.02;;;16.90;99.90;;;17.60;97.02;97282.16;10379228;28;20250;-79
2023/07/24 00:58:52;;;;;;;12.82;9.20;;;16.90;99.90;;;17.67;96.33;97259.03;10372844;28;20305;-79
2023/07/24 01:03:58;;;;;;;10.95;8.95;;;16.90;99.90;;;17.51;97.29;97273.41;10373396;28;20234;-79
2023/07/24 01:09:01;;;;;;;10.43;9.32;;;16.70;99.90;;;17.44;96.69;97256.00;10370793;28;20297;-78
2023/07/24 01:14:14;;;;;;;10.55;9.18;;;16.70;99.90;;;17.46;97.99;97256.06;10371046;28;20298;-79
2023/07/24 01:19:34;;;;;;;10.70;9.02;;;16.60;99.90;;;17.53;98.53;97235.50;10368372;28;20273;-80
2023/07/24 01:24:49;;;;;;;10.45;9.35;;;16.70;99.90;;;17.36;98.87;97233.44;10367465;28;20308;-80
2023/07/24 01:29:53;;;;;;;12.15;9.27;;;16.60;99.90;;;17.33;99.01;97211.00;10367172;28;20226;-80
2023/07/24 01:34:57;;;;;;;11.32;9.90;;;16.50;99.90;;;17.18;99.61;97200.38;10359989;28;20237;-81
2023/07/24 01:40:01;;;;;;;11.82;9.60;;;16.40;99.90;;;17.07;100.00;97197.56;10362132;28;20237;-80
2023/07/24 01:45:07;;;;;;;11.82;9.25;;;16.30;99.90;;;16.91;100.00;97191.19;10366894;28;20763;-80
2023/07/24 01:50:11;;;;;;;13.73;9.95;;;16.30;99.90;;;16.98;100.00;97187.91;10363723;28;20226;-79
2023/07/24 01:55:15;;;;;;;12.55;10.48;;;16.30;99.90;;;17.04;100.00;97198.34;10362849;28;20226;-81
2023/07/24 02:00:19;;;;;;;13.15;9.90;;;16.30;99.90;;;17.08;100.00;97205.34;10362462;28;20233;-79
2023/07/24 02:05:24;;;;;;;13.13;10.27;;;16.40;99.90;;;17.08;100.00;97205.34;10362309;28;20276;-80
2023/07/24 02:10:27;;;;;;;14.23;10.60;;;16.40;99.90;;;17.17;100.00;97203.78;10361838;28;20309;-80
2023/07/24 02:15:32;;;;;;;12.43;10.48;;;16.40;99.90;;;17.29;99.74;97198.88;10365462;28;20633;-78
2023/07/24 02:20:35;;;;;;;12.30;10.02;;;16.60;99.90;;;17.16;100.00;97189.13;10354648;28;20293;-82
2023/07/24 02:25:38;;;;;;;12.15;10.07;;;16.50;99.90;;;17.11;100.00;97179.59;10360362;28;20641;-78
2023/07/24 02:30:42;;;;;;;11.25;10.05;;;16.50;99.90;;;17.02;100.00;97179.38;10358461;28;20222;-79
2023/07/24 02:35:45;;;;;;;11.07;9.60;;;16.40;99.90;;;17.04;100.00;97169.94;10363446;28;20236;-79
2023/07/24 02:40:49;;;;;;;10.95;9.25;;;16.40;99.90;;;17.23;100.00;97166.03;10356118;28;20222;-79
2023/07/24 02:45:54;;;;;;;12.23;10.13;;;16.50;99.90;;;17.25;99.91;97160.88;10359188;28;20223;-81
2023/07/24 02:50:57;;;;;;;12.88;10.60;;;16.50;99.90;;;17.27;100.00;97154.91;10368153;28;20313;-81
2023/07/24 02:56:02;;;;;;;11.85;10.07;;;16.50;99.90;;;17.30;100.00;97143.78;10359972;28;20235;-80
2023/07/24 03:01:08;;;;;;;11.52;9.98;;;16.50;99.90;;;17.28;99.90;97155.78;10368201;28;20214;-79
2023/07/24 03:06:11;;;;;;;11.48;9.15;;;16.50;99.90;;;17.36;99.17;97140.44;10375956;28;20300;-79
2023/07/24 03:11:14;;;;;;;10.93;9.55;;;16.50;99.90;;;17.30;100.00;97131.72;10371328;28;20223;-81
2023/07/24 03:16:20;;;;;;;10.63;8.95;;;16.50;99.90;;;17.32;100.00;97131.75;10373085;28;20333;-80
2023/07/24 03:21:24;;;;;;;10.18;9.18;;;16.40;99.90;;;17.28;99.73;97117.03;10368318;28;20313;-81
2023/07/24 03:26:27;;;;;;;11.20;9.32;;;16.40;99.90;;;17.15;99.61;97125.41;10366553;28;21053;-80
2023/07/24 03:31:33;;;;;;;10.82;9.25;;;16.20;99.90;;;16.82;100.00;97119.59;10372127;28;20731;-80
2023/07/24 03:36:36;;;;;;;11.13;9.60;;;16.00;99.90;;;16.74;100.00;97125.41;10367765;28;20227;-80
2023/07/24 03:41:40;;;;;;;11.60;9.60;;;16.00;99.90;;;16.87;100.00;97122.28;10371552;28;20218;-79
2023/07/24 03:46:44;;;;;;;12.05;9.85;;;16.00;99.90;;;16.85;100.00;97113.63;10371859;28;20302;-82
2023/07/24 03:51:47;;;;;;;11.30;8.75;;;15.90;99.90;;;16.57;100.00;97122.47;10362509;28;20243;-81
2023/07/24 03:56:50;;;;;;;10.88;9.50;;;15.80;99.90;;;16.53;100.00;97129.25;10370943;28;20329;-80
2023/07/24 04:01:55;;;;;;;9.68;8.57;;;15.80;99.90;;;16.79;100.00;97118.66;10373722;28;20230;-80
2023/07/24 04:06:58;;;;;;;10.38;8.90;;;16.00;99.90;;;16.66;99.68;97115.78;10367334;28;20226;-81
2023/07/24 04:12:01;;;;;;;10.23;8.82;;;15.90;99.90;;;16.60;100.00;97096.75;10370953;28;20254;-80
2023/07/24 04:17:07;;;;;;;11.63;9.77;;;15.90;99.90;;;16.93;100.00;97106.91;10368087;28;20658;-80
2023/07/24 04:22:10;;;;;;;10.85;8.93;;;16.10;99.90;;;17.32;97.03;97087.84;10363196;28;20229;-79
2023/07/24 04:27:13;;;;;;;9.60;8.57;;;16.40;99.90;;;17.32;97.33;97080.09;10369722;28;20232;-79
2023/07/24 04:32:17;;;;;;;10.00;7.97;;;16.50;99.90;;;17.36;95.40;97078.44;10363048;28;20233;-79
2023/07/24 04:37:21;;;;;;;11.15;8.18;;;16.40;99.90;;;17.32;94.69;97072.34;10367882;28;20226;-78
2023/07/24 04:42:24;;;;;;;9.45;8.13;;;16.40;99.90;;;17.14;93.93;97054.81;10370984;28;20222;-81
2023/07/24 04:47:29;;;;;;;10.48;8.90;;;16.40;99.90;;;17.50;93.59;97056.28;10362847;28;20717;-78
2023/07/24 04:52:32;;;;;;;9.65;8.65;;;16.60;99.90;;;17.52;93.44;97042.56;10369607;28;21707;-79
2023/07/24 04:57:35;;;;;;;11.35;8.95;;;16.70;99.90;;;17.73;95.50;97048.91;10363186;28;20314;-78
2023/07/24 05:02:40;;;;;;;12.23;9.07;;;16.90;99.90;;;17.91;94.43;97051.84;10361486;28;20222;-78
2023/07/24 05:07:43;;;;;;;10.93;9.82;;;17.10;99.90;;;18.08;93.96;97043.44;10360904;28;20717;-79
2023/07/24 05:12:46;;;;;;;9.93;8.88;;;17.20;99.90;;;18.09;93.87;97050.38;10365932;28;20313;-80
2023/07/24 05:17:51;;;;;;;10.93;9.13;;;17.20;99.90;;;18.18;93.86;97035.81;10375016;28;20225;-78
2023/07/24 05:22:54;;;;;;;11.60;9.40;;;17.30;99.90;;;18.61;91.38;97045.88;10375691;28;20222;-79
2023/07/24 05:27:58;;;;;;;9.40;8.20;;;17.70;99.90;;;19.10;89.18;97038.69;10370740;28;20286;-80
2023/07/24 05:33:02;;;;;;;10.77;8.70;;;18.30;99.90;;;20.14;84.63;97043.88;10372585;28;20219;-79
2023/07/24 05:38:06;;;;;;;9.82;8.38;;;19.30;99.90;;;20.98;78.37;97039.13;10368912;28;20241;-81
2023/07/24 05:43:09;;;;;;;9.75;8.75;;;20.00;99.90;;;21.29;77.67;97044.34;10365231;28;20257;-81
2023/07/24 05:48:14;;;;;;;10.30;9.30;;;20.20;99.90;;;21.67;75.78;97035.78;10376807;28;20712;-80
2023/07/24 05:53:18;;;;;;;10.18;8.32;;;20.40;99.90;;;21.99;75.05;97038.34;10367060;28;20235;-78
2023/07/24 05:58:21;;;;;;;10.05;8.90;;;20.70;99.90;;;22.33;71.68;97051.34;10381358;28;20781;-83
2023/07/24 06:03:26;;;;;;;10.55;9.48;;;20.80;99.90;;;21.92;73.17;97058.31;10378457;28;20245;-81
2023/07/24 06:08:29;;;;;;;9.55;8.35;;;20.50;99.90;;;21.72;75.52;97076.53;10379156;28;20223;-82
2023/07/24 06:13:33;;;;;;;10.77;9.20;;;20.40;99.90;;;21.55;76.34;97081.72;10384715;28;20227;-83
2023/07/24 06:18:37;;;;;;;9.75;8.73;;;20.30;99.90;;;21.62;76.45;97089.53;10393508;28;20237;-82
2023/07/24 06:23:41;;;;;;;11.15;9.40;;;20.30;99.90;;;21.36;78.22;97092.91;10387741;28;20230;-82
2023/07/24 06:28:44;;;;;;;10.75;9.48;;;20.20;99.90;;;21.20;79.22;97080.75;10391137;28;20234;-83
2023/07/24 06:33:49;;;;;;;10.10;8.98;;;20.10;99.90;;;20.86;81.69;97070.22;10398209;28;20234;-84
2023/07/24 06:38:52;;;;;;;10.88;8.70;;;19.80;99.90;;;21.01;82.20;97075.50;10396612;28;20226;-84
2023/07/24 06:43:56;;;;;;;11.18;9.13;;;19.90;99.90;;;20.93;82.17;97083.25;10398465;28;20235;-82
2023/07/24 06:49:00;;;;;;;11.20;9.55;;;19.90;99.90;;;20.97;82.26;97062.47;10397383;28;20226;-83
2023/07/24 06:54:04;;;;;;;10.43;9.18;;;20.00;99.90;;;20.86;83.96;97044.25;10402928;28;20230;-82
2023/07/24 06:59:07;;;;;;;10.68;9.50;;;19.90;99.90;;;21.02;83.58;97033.06;10401679;28;20234;-82
2023/07/24 07:04:12;;;;;;;9.63;8.60;;;20.00;99.90;;;21.17;84.14;97028.75;10400509;28;20216;-83
2023/07/24 07:09:15;;;;;;;8.95;8.05;;;20.20;99.90;;;21.28;84.98;97047.84;10395145;28;20222;-82
2023/07/24 07:14:19;;;;;;;10.45;9.32;;;20.30;99.90;;;21.23;85.37;97054.75;10394137;28;20222;-81
2023/07/24 07:19:23;;;;;;;11.38;9.48;;;20.20;99.90;;;21.41;84.50;97065.22;10398500;28;20349;-81
2023/07/24 07:24:27;;;;;;;10.73;9.30;;;20.40;99.90;;;21.42;84.70;97063.50;10399574;28;20218;-83
2023/07/24 07:29:31;;;;;;;12.32;8.38;;;20.40;99.90;;;21.49;85.28;97055.72;10392981;28;20219;-83
2023/07/24 07:34:36;;;;;;;12.18;9.88;;;20.50;99.90;;;21.58;86.46;97047.91;10388472;28;20237;-82
2023/07/24 07:39:40;;;;;;;10.40;9.25;;;20.60;99.90;;;21.62;85.73;97073.91;10401007;28;20226;-84
2023/07/24 07:44:43;;;;;;;11.80;9.32;;;20.70;99.90;;;21.79;85.41;97078.25;10398443;28;20242;-81
2023/07/24 07:49:48;;;;;;;10.07;8.82;;;20.90;99.90;;;22.17;84.61;97093.00;10391094;28;20246;-83
2023/07/24 07:54:51;;;;;;;10.82;9.65;;;21.20;99.90;;;22.45;83.90;97112.06;10393146;28;20233;-81
2023/07/24 07:59:55;;;;;;;11.50;10.30;;;21.50;99.90;;;22.85;81.86;97111.09;10396317;28;20245;-83
2023/07/24 08:05:00;;;;;;;11.20;10.00;;;21.80;99.90;;;23.32;79.61;97105.72;10387604;28;20234;-82
2023/07/24 08:10:14;;;;;;;11.80;9.45;;;22.40;99.90;;;23.58;77.60;97115.97;10393894;28;20225;-82
2023/07/24 08:15:19;;;;;;;10.52;9.43;;;22.60;99.90;;;23.80;73.26;97116.72;10398453;28;20220;-83
2023/07/24 08:20:24;;;;;;;11.38;9.43;;;22.70;99.90;;;23.82;72.10;97109.75;10397168;28;20317;-82
2023/07/24 08:25:27;;;;;;;11.30;10.10;;;22.90;99.90;;;23.86;69.40;97114.94;10392529;28;20219;-83
2023/07/24 08:30:31;;;;;;;10.10;9.00;;;22.80;99.90;;;23.76;70.59;97112.41;10385004;28;20777;-83
2023/07/24 08:35:36;;;;;;;9.68;8.70;;;22.70;99.90;;;23.70;71.37;97094.19;10391483;28;20971;-81
2023/07/24 08:40:39;;;;;;;10.98;9.40;;;22.70;99.90;;;23.65;71.83;97080.25;10392211;28;20281;-83
2023/07/24 08:45:43;;;;;;;12.93;9.93;;;22.60;99.90;;;23.56;76.89;97096.84;10393185;28;20233;-82
2023/07/24 08:50:48;;;;;;;11.75;9.55;;;22.70;99.90;;;23.57;80.46;97118.59;10394490;28;20708;-81
2023/07/24 08:55:54;;;;;;;10.25;8.98;;;22.60;99.90;;;23.71;73.05;97079.38;10400593;28;20226;-81
2023/07/24 09:00:59;;;;;;;10.32;9.20;;;23.00;99.90;;;23.83;73.18;97089.72;10390117;28;20234;-84
2023/07/24 09:06:06;;;;;;;10.52;9.32;;;23.00;99.90;;;23.89;73.36;97089.66;10386847;28;20294;-82
2023/07/24 09:11:12;;;;;;;9.55;8.55;;;23.00;99.90;;;23.69;73.64;97065.44;10391637;28;20222;-83
2023/07/24 09:16:26;;;;;;;9.43;8.52;;;22.80;99.90;;;23.46;76.53;97047.34;10386832;28;20276;-82
2023/07/24 09:21:33;;;;;;;10.30;9.10;;;22.60;99.90;;;23.46;76.68;97023.88;10388789;28;20265;-82
2023/07/24 09:26:36;;;;;;;9.88;8.63;;;22.50;99.90;;;23.33;78.66;97042.22;10390779;28;20225;-82
2023/07/24 09:31:39;;;;;;;9.70;8.80;;;22.50;99.90;;;23.39;77.12;97028.28;10396086;28;20230;-82
2023/07/24 09:36:44;;;;;;;12.05;8.90;;;22.40;99.90;;;23.47;74.94;97028.22;10391626;28;20254;-83
2023/07/24 09:41:49;;;;;;;9.85;7.78;;;22.60;99.90;;;23.50;75.02;97017.78;10396661;28;20305;-82
2023/07/24 09:46:53;;;;;;;9.52;8.18;;;22.60;99.90;;;23.91;72.97;97024.41;10388829;28;20214;-81
2023/07/24 09:52:04;;;;;;;8.85;7.68;;;23.00;99.90;;;24.37;71.93;97032.63;10387952;28;20310;-83
2023/07/24 09:57:08;;;;;;;8.23;7.43;;;23.40;99.90;;;24.72;67.29;97044.47;10383005;28;20227;-82
2023/07/24 10:02:24;;;;;;;9.40;8.23;;;23.70;99.90;;;24.56;69.32;97045.53;10384809;28;20228;-82
2023/07/24 10:07:29;;;;;;;8.93;7.93;;;23.40;99.90;;;24.33;70.00;97064.91;10384263;28;20226;-83
2023/07/24 10:12:33;;;;;;;9.55;7.85;;;23.00;99.90;;;23.96;73.96;97074.84;10383109;28;20266;-81
2023/07/24 10:17:36;;;;;;;9.07;8.18;;;22.80;99.90;;;23.53;74.93;97078.63;10386552;28;20234;-80
2023/07/24 10:22:43;;;;;;;10.75;8.18;;;22.60;99.90;;;23.23;79.62;97102.25;10380145;28;20225;-82
2023/07/24 10:27:49;;;;;;;8.55;7.40;;;22.50;99.90;;;23.00;80.64;97125.84;10380455;28;20241;-81
2023/07/24 10:32:52;;;;;;;9.52;8.15;;;22.30;99.90;;;22.78;86.65;97131.09;10376355;28;20235;-82
2023/07/24 10:38:03;;;;;;;8.85;7.95;;;22.20;99.90;;;22.45;90.38;97134.66;10383293;28;20234;-82
2023/07/24 10:43:07;;;;;;;8.98;8.07;;;21.90;99.90;;;22.05;92.58;97135.50;10376458;28;20233;-82
2023/07/24 10:48:12;;;;;;;12.00;8.57;;;21.50;99.90;;;21.58;96.09;97145.88;10373205;28;20258;-84
2023/07/24 10:53:19;;;;;;;10.63;8.75;;;21.10;99.90;;;21.21;99.44;97165.69;10380184;28;20225;-83
2023/07/24 10:58:26;;;;;;;10.02;8.10;;;20.70;99.90;;;20.82;100.00;97168.06;10374615;28;20234;-86
2023/07/24 11:03:30;;;;;;;10.70;9.45;;;20.30;99.90;;;20.67;100.00;97184.44;10374431;28;20232;-84
2023/07/24 11:08:37;;;;;;;11.05;9.73;;;20.20;99.90;;;20.49;100.00;97184.31;10375172;28;20230;-85
2023/07/24 11:13:40;;;;;;;11.68;9.10;;;20.00;99.90;;;20.51;100.00;97182.56;10370541;28;20226;-82
2023/07/24 11:18:49;;;;;;;11.50;9.82;;;19.90;99.90;;;20.39;100.00;97193.72;10360808;28;20289;-83
2023/07/24 11:23:58;;;;;;;10.32;9.15;;;19.80;99.90;;;20.30;100.00;97193.66;10376426;28;20226;-82
2023/07/24 11:29:02;;;;;;;12.20;9.38;;;19.70;99.90;;;20.24;100.00;97175.47;10376931;28;20252;-84
2023/07/24 11:34:06;;;;;;;11.90;9.75;;;19.70;99.90;;;20.10;100.00;97145.94;10370000;28;20633;-83
2023/07/24 11:39:11;;;;;;;11.02;9.30;;;19.60;99.90;;;19.95;100.00;97138.91;10369863;28;20238;-83
2023/07/24 11:44:16;;;;;;;10.65;9.65;;;19.40;99.90;;;19.89;100.00;97138.84;10368996;28;20249;-84
2023/07/24 11:49:20;;;;;;;10.23;9.02;;;19.50;99.90;;;19.92;100.00;97112.94;10369618;28;20257;-82
2023/07/24 11:54:24;;;;;;;10.35;9.25;;;19.40;99.90;;;19.87;100.00;97065.34;10369841;28;20261;-83
2023/07/24 11:59:28;;;;;;;11.10;9.45;;;19.40;99.90;;;19.68;100.00;97033.19;10368518;28;20265;-84
2023/07/24 12:04:32;;;;;;;11.25;9.90;;;19.30;99.90;;;19.83;100.00;97003.91;10373241;28;20639;-83
2023/07/24 12:09:37;;;;;;;11.73;9.80;;;19.50;99.90;;;20.23;100.00;97021.47;10370333;28;20238;-83
2023/07/24 12:14:40;;;;;;;11.75;10.55;;;20.00;99.90;;;20.35;100.00;97031.03;10379377;28;20230;-83
2023/07/24 12:19:44;;;;;;;10.85;9.70;;;20.20;99.90;;;20.68;100.00;97027.75;10372141;28;20226;-83
2023/07/24 12:24:48;;;;;;;11.35;9.38;;;20.40;99.90;;;20.86;100.00;97007.88;10374067;28;20242;-82
2023/07/24 12:29:52;;;;;;;10.35;9.25;;;20.50;99.90;;;20.88;100.00;97027.81;10376182;28;20229;-83
2023/07/24 12:34:56;;;;;;;11.32;10.07;;;20.40;99.90;;;21.21;100.00;97030.50;10372226;28;20374;-83
2023/07/24 12:40:00;;;;;;;10.65;9.38;;;20.80;99.90;;;21.57;100.00;97042.69;10372370;28;20233;-84
2023/07/24 12:45:05;;;;;;;10.02;9.02;;;21.10;99.90;;;21.91;100.00;97050.50;10365528;28;20233;-83
2023/07/24 12:50:10;;;;;;;11.18;8.93;;;21.50;99.90;;;22.36;100.00;97030.50;10366421;28;20218;-83
2023/07/24 12:55:15;;;;;;;10.60;8.07;;;21.90;99.90;;;22.54;100.00;97021.75;10371885;28;20227;-82
2023/07/24 13:00:18;;;;;;;9.88;8.02;;;22.00;99.90;;;22.61;100.00;97021.72;10365443;28;20276;-83
2023/07/24 13:05:22;;;;;;;9.27;8.15;;;22.10;99.90;;;22.74;97.65;97000.81;10365550;28;20222;-81
2023/07/24 13:10:27;;;;;;;9.13;7.97;;;22.20;99.90;;;22.81;98.09;96992.97;10369704;28;20221;-82
2023/07/24 13:15:31;;;;;;;10.10;8.10;;;22.30;99.90;;;22.95;94.55;96987.72;10361594;28;20310;-83
2023/07/24 13:20:35;;;;;;;10.40;8.50;;;22.50;99.90;;;22.78;93.33;96995.59;10368260;28;20772;-82
2023/07/24 13:25:39;;;;;;;8.85;7.13;;;22.20;99.90;;;22.72;98.20;96980.00;10370497;28;20253;-81
2023/07/24 13:30:42;;;;;;;8.05;7.28;;;22.10;99.90;;;22.92;95.81;96978.16;10385034;28;20233;-80
2023/07/24 13:35:46;;;;;;;7.35;6.50;;;22.20;99.90;;;22.97;94.61;96980.75;10376968;28;20230;-80
2023/07/24 13:40:50;;;;;;;9.30;7.57;;;22.40;99.90;;;22.91;94.12;96972.94;10372527;28;20272;-82
2023/07/24 13:45:54;;;;;;;7.70;6.90;;;22.40;99.90;;;23.04;94.87;96972.03;10362110;28;20313;-83
2023/07/24 13:50:58;;;;;;;7.63;6.93;;;22.50;99.90;;;23.18;88.98;96964.09;10367602;28;20767;-80
2023/07/24 13:56:03;;;;;;;8.00;7.20;;;22.50;99.90;;;23.06;90.39;96928.53;10371182;28;20729;-82
2023/07/24 14:01:07;;;;;;;7.32;6.63;;;22.40;99.90;;;23.13;87.56;96918.94;10366089;28;20259;-82
2023/07/24 14:06:10;;;;;;;8.45;6.95;;;22.40;99.90;;;23.19;85.85;96908.47;10355251;28;20304;-82
2023/07/24 14:11:15;;;;;;;7.65;6.95;;;22.40;99.90;;;23.20;90.27;96910.19;10358195;28;20229;-82
2023/07/24 14:16:18;;;;;;;7.03;6.30;;;22.50;99.90;;;23.25;87.28;96897.97;10366482;28;20273;-82
2023/07/24 14:21:22;;;;;;;6.60;5.90;;;22.40;99.90;;;23.51;81.72;96894.28;10361075;28;20222;-83
2023/07/24 14:26:26;;;;;;;6.97;6.22;;;22.60;99.90;;;23.44;82.71;96892.63;10362490;28;20707;-83
2023/07/24 14:31:30;;;;;;;6.85;6.15;;;22.60;99.90;;;23.56;81.18;96897.72;10369396;28;20232;-81
2023/07/24 14:36:34;;;;;;;6.80;6.10;;;22.60;99.90;;;23.44;81.74;96892.63;10354568;28;20230;-82
2023/07/24 14:41:39;;;;;;;6.50;5.88;;;22.60;99.90;;;23.35;81.78;96886.59;10355084;28;20218;-81
2023/07/24 14:46:42;;;;;;;5.88;5.28;;;22.40;99.90;;;23.54;75.20;96884.66;10345039;28;20246;-83
2023/07/24 14:51:45;;;;;;;5.43;4.93;;;22.50;99.90;;;23.67;75.63;96880.19;10340535;28;20309;-81
2023/07/24 14:56:51;;;;;;;5.10;4.60;;;22.70;99.90;;;23.95;72.21;96874.69;10356328;28;20241;-80
2023/07/24 15:02:07;;;;;;;4.80;4.25;;;22.90;99.90;;;24.00;69.25;96867.66;10344871;28;20842;-82
2023/07/24 15:07:10;;;;;;;4.75;4.35;;;23.10;99.90;;;24.03;68.88;96851.97;10351838;28;20227;-81
2023/07/24 15:12:15;;;;;;;4.97;4.53;;;23.20;99.90;;;24.19;66.27;96855.25;10364451;28;20251;-81
2023/07/24 15:17:19;;;;;;;4.22;3.83;;;23.40;99.90;;;24.09;69.91;96856.25;10367065;28;20856;-81
2023/07/24 15:22:23;;;;;;;4.40;4.00;;;23.30;99.90;;;24.06;68.59;96867.59;10373195;28;20234;-81
2023/07/24 15:27:27;;;;;;;4.95;4.05;;;23.20;99.90;;;24.01;67.10;96885.06;10370735;28;20226;-80
2023/07/24 15:32:31;;;;;;;5.57;4.18;;;23.20;99.90;;;23.92;69.30;96877.31;10383334;28;20277;-81
2023/07/24 15:37:34;;;;;;;4.70;4.20;;;23.00;99.90;;;23.92;68.07;96890.38;10384219;28;20234;-80
2023/07/24 15:42:39;;;;;;;4.53;4.13;;;23.00;99.90;;;23.85;66.00;96893.97;10380577;28;20317;-84
2023/07/24 15:47:42;;;;;;;4.93;4.43;;;23.10;99.90;;;23.81;66.68;96901.81;10376019;28;20285;-83
2023/07/24 15:52:46;;;;;;;5.15;4.70;;;23.10;99.90;;;23.74;66.87;96894.94;10384202;28;20222;-83
2023/07/24 15:57:50;;;;;;;5.10;4.25;;;23.00;99.90;;;23.62;66.96;96897.63;10377953;28;20231;-83
2023/07/24 16:02:54;;;;;;;4.82;4.43;;;22.80;99.90;;;23.44;68.41;96893.47;10378925;28;20226;-83
2023/07/24 16:07:57;;;;;;;5.55;5.05;;;22.60;99.90;;;23.33;67.33;96896.16;10369089;28;20293;-85
2023/07/24 16:13:02;;;;;;;5.28;4.78;;;22.50;99.90;;;23.24;68.30;96884.97;10375837;28;20313;-85
2023/07/24 16:18:05;;;;;;;5.32;4.82;;;22.40;99.90;;;23.26;66.84;96873.63;10381119;28;20233;-87
2023/07/24 16:23:09;;;;;;;4.68;4.28;;;22.40;99.90;;;23.17;69.41;96860.66;10369262;28;20234;-83
2023/07/24 16:28:14;;;;;;;5.10;4.60;;;22.40;99.90;;;23.25;68.02;96874.50;10377100;28;20210;-81
2023/07/24 16:33:17;;;;;;;5.55;5.05;;;22.40;99.90;;;23.23;68.61;96878.00;10372101;28;20236;-80
2023/07/24 16:38:23;;;;;;;4.82;4.43;;;22.50;99.90;;;23.39;65.87;96880.47;10379579;28;20253;-83
2023/07/24 16:43:28;;;;;;;5.30;4.80;;;22.80;99.90;;;23.44;66.15;96884.78;10385700;28;20567;-80
2023/07/24 16:48:32;;;;;;;4.95;4.45;;;22.70;99.90;;;23.26;66.75;96857.97;10384613;28;20222;-82
2023/07/24 16:53:35;;;;;;;5.15;4.65;;;22.60;99.90;;;23.29;67.92;96860.59;10383619;28;20226;-81
2023/07/24 16:58:40;;;;;;;4.95;4.45;;;22.50;99.90;;;23.44;66.47;96848.28;10383733;28;20231;-84
2023/07/24 17:03:44;;;;;;;5.07;4.35;;;22.50;99.90;;;23.30;66.97;96853.63;10390890;28;20222;-83
2023/07/24 17:08:47;;;;;;;5.03;4.60;;;22.50;99.90;;;23.26;66.69;96847.53;10378311;28;20233;-84
2023/07/24 17:13:52;;;;;;;5.15;4.75;;;22.40;99.90;;;23.32;66.53;96831.88;10392016;28;20596;-84
2023/07/24 17:18:56;;;;;;;5.03;4.53;;;22.40;99.90;;;23.19;68.53;96858.94;10376707;28;20314;-81
2023/07/24 17:23:59;;;;;;;5.60;5.10;;;22.40;99.90;;;23.19;68.57;96869.34;10360586;28;20284;-82
2023/07/24 17:29:04;;;;;;;4.75;4.35;;;22.20;99.90;;;22.98;69.61;96879.94;10362724;28;20296;-84
2023/07/24 17:34:07;;;;;;;5.45;4.88;;;22.20;99.90;;;22.91;70.60;96889.53;10365005;28;22246;-80
2023/07/24 17:39:10;;;;;;;5.65;4.90;;;22.10;99.90;;;22.78;71.06;96912.22;10361484;28;20237;-83
2023/07/24 17:44:15;;;;;;;5.75;4.70;;;22.00;99.90;;;22.85;72.19;96945.16;10356730;28;20226;-78
2023/07/24 17:49:18;;;;;;;4.82;4.32;;;21.90;99.90;;;22.53;73.73;96936.69;10340261;28;20321;-80
2023/07/24 17:54:21;;;;;;;3.95;3.58;;;21.70;99.90;;;21.89;76.16;96936.03;10348239;28;20226;-78
2023/07/24 17:59:28;;;;;;;6.50;4.80;;;21.10;99.90;;;21.30;84.60;96943.00;10357603;28;20225;-79
2023/07/24 18:04:32;;;;;;;5.93;5.20;;;20.70;99.90;;;20.67;93.75;96939.47;10347586;28;20312;-80
2023/07/24 18:09:36;;;;;;;5.05;4.55;;;20.20;99.90;;;20.28;100.00;96942.75;10354397;28;20259;-80
2023/07/24 18:14:41;;;;;;;5.15;4.65;;;19.80;99.90;;;19.89;100.00;96940.00;10353439;28;20325;-80
2023/07/24 18:19:44;;;;;;;5.88;4.93;;;19.40;99.90;;;19.73;100.00;96938.16;10353826;28;20992;-79
2023/07/24 18:24:50;;;;;;;5.75;4.72;;;19.30;99.90;;;19.65;100.00;96951.06;10355148;28;20245;-78
2023/07/24 18:29:54;;;;;;;5.50;5.00;;;19.20;99.90;;;19.65;100.00;96968.31;10349530;28;20239;-78
2023/07/24 18:34:58;;;;;;;5.43;4.93;;;19.10;99.90;;;19.71;100.00;96971.84;10350694;28;20821;-79
2023/07/24 18:40:01;;;;;;;4.63;4.22;;;19.20;99.90;;;19.71;100.00;96973.56;10352111;28;20230;-78
2023/07/24 18:45:09;;;;;;;5.20;4.70;;;19.10;99.90;;;19.68;100.00;96979.59;10350217;28;20342;-79
2023/07/24 18:50:12;;;;;;;6.32;5.72;;;19.10;99.90;;;19.63;100.00;96986.47;10358024;28;20257;-81
2023/07/24 18:55:15;;;;;;;4.80;4.40;;;19.00;99.90;;;19.46;100.00;96999.31;10353253;28;20230;-80
2023/07/24 19:00:20;;;;;;;5.25;4.82;;;18.90;99.90;;;19.32;100.00;97001.78;10354216;28;20818;-80
2023/07/24 19:05:23;;;;;;;4.88;4.38;;;18.70;99.90;;;19.17;100.00;97005.94;10356941;28;20231;-80
2023/07/24 19:10:27;;;;;;;4.55;4.13;;;18.60;99.90;;;19.10;100.00;96999.84;10356960;28;20273;-77
2023/07/24 19:15:32;;;;;;;4.47;4.15;;;18.50;99.90;;;19.03;100.00;97004.09;10352169;28;20215;-78
2023/07/24 19:20:36;;;;;;;4.50;4.10;;;18.30;99.90;;;18.90;100.00;97010.84;10350408;28;20237;-81
2023/07/24 19:25:40;;;;;;;4.60;3.80;;;18.20;99.90;;;18.88;100.00;97009.97;10356999;28;20317;-81
2023/07/24 19:30:55;;;;;;;5.40;4.43;;;18.20;99.90;;;18.79;100.00;97009.88;10360654;28;20222;-80
2023/07/24 19:36:00;;;;;;;5.22;4.72;;;18.10;99.90;;;18.76;100.00;97014.16;10355381;28;20317;-79
2023/07/24 19:41:04;;;;;;;5.05;4.55;;;18.10;99.90;;;18.71;100.00;97016.63;10343530;28;20307;-82
2023/07/24 19:46:15;;;;;;;5.03;4.00;;;18.00;99.90;;;18.66;100.00;97013.16;10344483;28;20334;-82
2023/07/24 19:51:19;;;;;;;4.47;4.07;;;18.00;99.90;;;18.55;100.00;97005.25;10348253;28;20233;-80
2023/07/24 19:56:22;;;;;;;4.85;4.45;;;17.80;99.90;;;18.34;100.00;97018.81;10359901;28;20367;-82
2023/07/24 20:01:27;;;;;;;4.15;3.75;;;17.70;99.90;;;18.29;100.00;97027.34;10360592;28;20233;-78
2023/07/24 20:06:30;;;;;;;4.47;4.13;;;17.60;99.90;;;18.27;100.00;97023.88;10354137;28;20242;-79
2023/07/24 20:11:34;;;;;;;5.38;4.72;;;17.50;99.90;;;18.17;100.00;97020.28;10347844;28;20246;-79
2023/07/24 20:16:38;;;;;;;3.85;3.50;;;17.40;99.90;;;17.97;100.00;97015.72;10357553;28;20257;-80
2023/07/24 20:21:42;;;;;;;4.50;4.10;;;17.20;99.90;;;17.96;100.00;97029.47;10357930;28;20239;-79
2023/07/24 20:26:45;;;;;;;4.72;4.32;;;17.20;99.90;;;17.80;100.00;97022.34;10359515;28;20230;-79
2023/07/24 20:31:50;;;;;;;4.75;4.35;;;17.00;99.90;;;17.72;100.00;97037.72;10363986;28;20236;-81
2023/07/24 20:36:53;;;;;;;5.28;4.35;;;17.00;99.90;;;17.63;100.00;97041.88;10355908;28;20222;-80
2023/07/24 20:41:56;;;;;;;4.40;3.97;;;16.90;99.90;;;17.59;100.00;97047.81;10353166;28;20222;-79
2023/07/24 20:47:01;;;;;;;4.65;3.78;;;16.90;99.90;;;17.55;100.00;97045.19;10370985;28;20242;-79
2023/07/24 20:52:06;;;;;;;4.82;4.30;;;16.80;99.90;;;17.49;100.00;97041.66;10361059;28;20313;-80
2023/07/24 20:57:09;;;;;;;4.07;3.78;;;16.80;99.90;;;17.38;100.00;97053.50;10369580;28;20290;-79